sensor_id;sensor_type;location;lat;lon;timestamp;temperature;humidity
4520;DHT22;2272;49.226;8.108;2022-12-07T00:01:21;1.70;99.90
4520;DHT22;2272;49.226;8.108;2022-12-07T00:03:50;1.80;99.90
4520;DHT22;2272;49.226;8.108;2022-12-07T00:06:18;2.00;99.90
4520;DHT22;2272;49.226;8.108;2022-12-07T00:08:44;2.10;99.90
4520;DHT22;2272;49.226;8.108;2022-12-07T00:11:15;2.20;99.90
4520;DHT22;2272;49.226;8.108;2022-12-07T00:13:42;2.30;99.90
4520;DHT22;2272;49.226;8.108;2022-12-07T00:16:12;2.40;99.90
4520;DHT22;2272;49.226;8.108;2022-12-07T00:18:39;2.50;99.90
4520;DHT22;2272;49.226;8.108;2022-12-07T00:21:08;2.60;99.90
4520;DHT22;2272;49.226;8.108;2022-12-07T00:23:36;2.70;99.90
4520;DHT22;2272;49.226;8.108;2022-12-07T00:26:04;2.70;99.90
4520;DHT22;2272;49.226;8.108;2022-12-07T00:28:32;2.80;99.90
4520;DHT22;2272;49.226;8.108;2022-12-07T00:31:01;2.90;99.90
4520;DHT22;2272;49.226;8.108;2022-12-07T00:33:28;3.00;99.90
4520;DHT22;2272;49.226;8.108;2022-12-07T00:35:55;3.10;99.90
4520;DHT22;2272;49.226;8.108;2022-12-07T00:38:23;3.10;99.90
4520;DHT22;2272;49.226;8.108;2022-12-07T00:40:55;3.10;99.90
4520;DHT22;2272;49.226;8.108;2022-12-07T00:43:22;3.00;99.90
4520;DHT22;2272;49.226;8.108;2022-12-07T00:45:50;3.00;99.90
4520;DHT22;2272;49.226;8.108;2022-12-07T00:48:17;2.90;99.90
4520;DHT22;2272;49.226;8.108;2022-12-07T00:50:43;2.90;99.90
4520;DHT22;2272;49.226;8.108;2022-12-07T00:53:10;2.80;99.90
4520;DHT22;2272;49.226;8.108;2022-12-07T00:55:37;2.80;99.90
4520;DHT22;2272;49.226;8.108;2022-12-07T00:58:04;2.70;99.90
4520;DHT22;2272;49.226;8.108;2022-12-07T01:00:31;2.70;99.90
4520;DHT22;2272;49.226;8.108;2022-12-07T01:02:59;2.70;99.90
4520;DHT22;2272;49.226;8.108;2022-12-07T01:05:26;2.70;99.90
4520;DHT22;2272;49.226;8.108;2022-12-07T01:07:53;2.70;99.90
4520;DHT22;2272;49.226;8.108;2022-12-07T01:10:19;2.70;99.90
4520;DHT22;2272;49.226;8.108;2022-12-07T01:12:46;2.70;99.90
4520;DHT22;2272;49.226;8.108;2022-12-07T01:15:13;2.70;99.90
4520;DHT22;2272;49.226;8.108;2022-12-07T01:17:39;2.70;99.90
4520;DHT22;2272;49.226;8.108;2022-12-07T01:20:09;2.70;99.90
4520;DHT22;2272;49.226;8.108;2022-12-07T01:22:36;2.70;99.90
4520;DHT22;2272;49.226;8.108;2022-12-07T01:25:04;2.80;99.90
4520;DHT22;2272;49.226;8.108;2022-12-07T01:27:32;2.80;99.90
4520;DHT22;2272;49.226;8.108;2022-12-07T01:29:59;3.00;99.90
4520;DHT22;2272;49.226;8.108;2022-12-07T01:32:26;3.10;99.90
4520;DHT22;2272;49.226;8.108;2022-12-07T01:34:52;3.20;99.90
4520;DHT22;2272;49.226;8.108;2022-12-07T01:37:20;3.20;99.90
4520;DHT22;2272;49.226;8.108;2022-12-07T01:39:48;3.20;99.90
4520;DHT22;2272;49.226;8.108;2022-12-07T01:42:15;3.20;99.90
4520;DHT22;2272;49.226;8.108;2022-12-07T01:47:52;3.10;99.90
4520;DHT22;2272;49.226;8.108;2022-12-07T01:50:20;3.10;99.90
4520;DHT22;2272;49.226;8.108;2022-12-07T01:52:50;3.00;99.90
4520;DHT22;2272;49.226;8.108;2022-12-07T01:55:18;3.00;99.90
4520;DHT22;2272;49.226;8.108;2022-12-07T01:57:47;3.00;99.90
4520;DHT22;2272;49.226;8.108;2022-12-07T02:00:15;3.00;99.90
4520;DHT22;2272;49.226;8.108;2022-12-07T02:02:44;3.00;99.90
4520;DHT22;2272;49.226;8.108;2022-12-07T02:05:13;3.00;99.90
4520;DHT22;2272;49.226;8.108;2022-12-07T02:07:40;3.00;99.90
4520;DHT22;2272;49.226;8.108;2022-12-07T02:10:16;2.90;99.90
4520;DHT22;2272;49.226;8.108;2022-12-07T02:12:45;2.90;99.90
4520;DHT22;2272;49.226;8.108;2022-12-07T02:15:13;3.00;99.90
4520;DHT22;2272;49.226;8.108;2022-12-07T02:17:46;3.00;99.90
4520;DHT22;2272;49.226;8.108;2022-12-07T02:20:22;3.00;99.90
4520;DHT22;2272;49.226;8.108;2022-12-07T02:23:15;3.00;99.90
4520;DHT22;2272;49.226;8.108;2022-12-07T02:25:58;3.00;99.90
4520;DHT22;2272;49.226;8.108;2022-12-07T02:28:32;3.00;99.90
4520;DHT22;2272;49.226;8.108;2022-12-07T02:31:05;3.00;99.90
4520;DHT22;2272;49.226;8.108;2022-12-07T02:33:36;3.00;99.90
4520;DHT22;2272;49.226;8.108;2022-12-07T02:36:08;3.00;99.90
4520;DHT22;2272;49.226;8.108;2022-12-07T02:38:40;3.00;99.90
4520;DHT22;2272;49.226;8.108;2022-12-07T02:41:12;3.00;99.90
4520;DHT22;2272;49.226;8.108;2022-12-07T02:43:41;3.00;99.90
4520;DHT22;2272;49.226;8.108;2022-12-07T02:46:14;3.00;99.90
4520;DHT22;2272;49.226;8.108;2022-12-07T02:48:43;3.00;99.90
4520;DHT22;2272;49.226;8.108;2022-12-07T02:51:10;3.00;99.90
4520;DHT22;2272;49.226;8.108;2022-12-07T02:53:40;2.90;99.90
4520;DHT22;2272;49.226;8.108;2022-12-07T02:56:11;2.90;99.90
4520;DHT22;2272;49.226;8.108;2022-12-07T02:58:46;2.90;99.90
4520;DHT22;2272;49.226;8.108;2022-12-07T03:01:25;2.80;99.90
4520;DHT22;2272;49.226;8.108;2022-12-07T03:04:01;2.80;99.90
4520;DHT22;2272;49.226;8.108;2022-12-07T03:06:32;2.80;99.90
4520;DHT22;2272;49.226;8.108;2022-12-07T03:09:06;2.90;99.90
4520;DHT22;2272;49.226;8.108;2022-12-07T03:11:42;2.90;99.90
4520;DHT22;2272;49.226;8.108;2022-12-07T03:14:15;2.80;99.90
4520;DHT22;2272;49.226;8.108;2022-12-07T03:16:49;2.80;99.90
4520;DHT22;2272;49.226;8.108;2022-12-07T03:19:18;2.80;99.90
4520;DHT22;2272;49.226;8.108;2022-12-07T03:21:49;2.80;99.90
4520;DHT22;2272;49.226;8.108;2022-12-07T03:24:20;2.70;99.90
4520;DHT22;2272;49.226;8.108;2022-12-07T03:26:50;2.70;99.90
4520;DHT22;2272;49.226;8.108;2022-12-07T03:29:22;2.70;99.90
4520;DHT22;2272;49.226;8.108;2022-12-07T03:31:55;2.80;99.90
4520;DHT22;2272;49.226;8.108;2022-12-07T03:34:28;2.80;99.90
4520;DHT22;2272;49.226;8.108;2022-12-07T03:37:00;2.80;99.90
4520;DHT22;2272;49.226;8.108;2022-12-07T03:39:30;2.80;99.90
4520;DHT22;2272;49.226;8.108;2022-12-07T03:41:59;2.80;99.90
4520;DHT22;2272;49.226;8.108;2022-12-07T03:44:27;2.80;99.90
4520;DHT22;2272;49.226;8.108;2022-12-07T03:47:01;2.80;99.90
4520;DHT22;2272;49.226;8.108;2022-12-07T03:49:32;2.80;99.90
4520;DHT22;2272;49.226;8.108;2022-12-07T03:52:07;2.80;99.90
4520;DHT22;2272;49.226;8.108;2022-12-07T03:54:38;2.80;99.90
4520;DHT22;2272;49.226;8.108;2022-12-07T03:57:07;2.80;99.90
4520;DHT22;2272;49.226;8.108;2022-12-07T03:59:35;2.80;99.90
4520;DHT22;2272;49.226;8.108;2022-12-07T04:02:05;2.80;99.90
4520;DHT22;2272;49.226;8.108;2022-12-07T04:04:33;2.70;99.90
4520;DHT22;2272;49.226;8.108;2022-12-07T04:07:00;2.70;99.90
4520;DHT22;2272;49.226;8.108;2022-12-07T04:09:26;2.70;99.90
4520;DHT22;2272;49.226;8.108;2022-12-07T04:11:53;2.70;99.90
4520;DHT22;2272;49.226;8.108;2022-12-07T04:14:20;2.70;99.90
4520;DHT22;2272;49.226;8.108;2022-12-07T04:16:47;2.70;99.90
4520;DHT22;2272;49.226;8.108;2022-12-07T04:19:17;2.70;99.90
4520;DHT22;2272;49.226;8.108;2022-12-07T04:21:44;2.80;99.90
4520;DHT22;2272;49.226;8.108;2022-12-07T04:24:12;2.80;99.90
4520;DHT22;2272;49.226;8.108;2022-12-07T04:26:39;2.80;99.90
4520;DHT22;2272;49.226;8.108;2022-12-07T04:29:06;2.80;99.90
4520;DHT22;2272;49.226;8.108;2022-12-07T04:31:33;2.80;99.90
4520;DHT22;2272;49.226;8.108;2022-12-07T04:33:59;2.80;99.90
4520;DHT22;2272;49.226;8.108;2022-12-07T04:36:27;2.80;99.90
4520;DHT22;2272;49.226;8.108;2022-12-07T04:38:54;2.80;99.90
4520;DHT22;2272;49.226;8.108;2022-12-07T04:41:22;2.70;99.90
4520;DHT22;2272;49.226;8.108;2022-12-07T04:43:53;2.70;99.90
4520;DHT22;2272;49.226;8.108;2022-12-07T04:46:20;2.70;99.90
4520;DHT22;2272;49.226;8.108;2022-12-07T04:48:46;2.60;99.90
4520;DHT22;2272;49.226;8.108;2022-12-07T04:51:14;2.60;99.90
4520;DHT22;2272;49.226;8.108;2022-12-07T04:53:43;2.60;99.90
4520;DHT22;2272;49.226;8.108;2022-12-07T04:56:10;2.60;99.90
4520;DHT22;2272;49.226;8.108;2022-12-07T04:58:36;2.60;99.90
4520;DHT22;2272;49.226;8.108;2022-12-07T05:01:03;2.60;99.90
4520;DHT22;2272;49.226;8.108;2022-12-07T05:03:30;2.60;99.90
4520;DHT22;2272;49.226;8.108;2022-12-07T05:05:56;2.50;99.90
4520;DHT22;2272;49.226;8.108;2022-12-07T05:08:23;2.50;99.90
4520;DHT22;2272;49.226;8.108;2022-12-07T05:10:51;2.50;99.90
4520;DHT22;2272;49.226;8.108;2022-12-07T05:13:18;2.50;99.90
4520;DHT22;2272;49.226;8.108;2022-12-07T05:15:46;2.50;99.90
4520;DHT22;2272;49.226;8.108;2022-12-07T05:18:13;2.50;99.90
4520;DHT22;2272;49.226;8.108;2022-12-07T05:20:41;2.50;99.90
4520;DHT22;2272;49.226;8.108;2022-12-07T05:23:08;2.50;99.90
4520;DHT22;2272;49.226;8.108;2022-12-07T05:25:35;2.50;99.90
4520;DHT22;2272;49.226;8.108;2022-12-07T05:28:04;2.50;99.90
4520;DHT22;2272;49.226;8.108;2022-12-07T05:30:31;2.50;99.90
4520;DHT22;2272;49.226;8.108;2022-12-07T05:32:58;2.60;99.90
4520;DHT22;2272;49.226;8.108;2022-12-07T05:35:25;2.60;99.90
4520;DHT22;2272;49.226;8.108;2022-12-07T05:37:52;2.60;99.90
4520;DHT22;2272;49.226;8.108;2022-12-07T05:40:18;2.50;99.90
4520;DHT22;2272;49.226;8.108;2022-12-07T05:42:45;2.60;99.90
4520;DHT22;2272;49.226;8.108;2022-12-07T05:45:13;2.50;99.90
4520;DHT22;2272;49.226;8.108;2022-12-07T05:47:40;2.60;99.90
4520;DHT22;2272;49.226;8.108;2022-12-07T05:50:07;2.60;99.90
4520;DHT22;2272;49.226;8.108;2022-12-07T05:52:34;2.60;99.90
4520;DHT22;2272;49.226;8.108;2022-12-07T05:55:00;2.60;99.90
4520;DHT22;2272;49.226;8.108;2022-12-07T05:57:27;2.60;99.90
4520;DHT22;2272;49.226;8.108;2022-12-07T05:59:54;2.60;99.90
4520;DHT22;2272;49.226;8.108;2022-12-07T06:02:21;2.60;99.90
4520;DHT22;2272;49.226;8.108;2022-12-07T06:04:47;2.60;99.90
4520;DHT22;2272;49.226;8.108;2022-12-07T06:07:15;2.70;99.90
4520;DHT22;2272;49.226;8.108;2022-12-07T06:09:42;2.60;99.90
4520;DHT22;2272;49.226;8.108;2022-12-07T06:12:10;2.60;99.90
4520;DHT22;2272;49.226;8.108;2022-12-07T06:14:54;2.60;99.90
4520;DHT22;2272;49.226;8.108;2022-12-07T06:17:22;2.60;99.90
4520;DHT22;2272;49.226;8.108;2022-12-07T06:19:49;2.60;99.90
4520;DHT22;2272;49.226;8.108;2022-12-07T06:22:15;2.60;99.90
4520;DHT22;2272;49.226;8.108;2022-12-07T06:24:42;2.60;99.90
4520;DHT22;2272;49.226;8.108;2022-12-07T06:27:10;2.60;99.90
4520;DHT22;2272;49.226;8.108;2022-12-07T06:29:37;2.60;99.90
4520;DHT22;2272;49.226;8.108;2022-12-07T06:32:03;2.60;99.90
4520;DHT22;2272;49.226;8.108;2022-12-07T06:34:32;2.60;99.90
4520;DHT22;2272;49.226;8.108;2022-12-07T06:36:59;2.50;99.90
4520;DHT22;2272;49.226;8.108;2022-12-07T06:39:27;2.50;99.90
4520;DHT22;2272;49.226;8.108;2022-12-07T06:44:57;2.50;99.90
4520;DHT22;2272;49.226;8.108;2022-12-07T06:47:24;2.50;99.90
4520;DHT22;2272;49.226;8.108;2022-12-07T06:49:52;2.50;99.90
4520;DHT22;2272;49.226;8.108;2022-12-07T06:52:19;2.50;99.90
4520;DHT22;2272;49.226;8.108;2022-12-07T06:54:46;2.50;99.90
4520;DHT22;2272;49.226;8.108;2022-12-07T06:57:12;2.50;99.90
4520;DHT22;2272;49.226;8.108;2022-12-07T06:59:41;2.50;99.90
4520;DHT22;2272;49.226;8.108;2022-12-07T07:02:13;2.50;99.90
4520;DHT22;2272;49.226;8.108;2022-12-07T07:04:40;2.50;99.90
4520;DHT22;2272;49.226;8.108;2022-12-07T07:07:08;2.50;99.90
4520;DHT22;2272;49.226;8.108;2022-12-07T07:09:35;2.50;99.90
4520;DHT22;2272;49.226;8.108;2022-12-07T07:12:01;2.50;99.90
4520;DHT22;2272;49.226;8.108;2022-12-07T07:14:28;2.50;99.90
4520;DHT22;2272;49.226;8.108;2022-12-07T07:16:55;2.50;99.90
4520;DHT22;2272;49.226;8.108;2022-12-07T07:19:22;2.50;99.90
4520;DHT22;2272;49.226;8.108;2022-12-07T07:21:48;2.60;99.90
4520;DHT22;2272;49.226;8.108;2022-12-07T07:24:16;2.60;99.90
4520;DHT22;2272;49.226;8.108;2022-12-07T07:26:43;2.70;99.90
4520;DHT22;2272;49.226;8.108;2022-12-07T07:29:10;2.70;99.90
4520;DHT22;2272;49.226;8.108;2022-12-07T07:31:37;2.80;99.90
4520;DHT22;2272;49.226;8.108;2022-12-07T07:34:04;2.80;99.90
4520;DHT22;2272;49.226;8.108;2022-12-07T07:36:31;2.80;99.90
4520;DHT22;2272;49.226;8.108;2022-12-07T07:38:57;2.90;99.90
4520;DHT22;2272;49.226;8.108;2022-12-07T07:41:25;2.90;99.90
4520;DHT22;2272;49.226;8.108;2022-12-07T07:43:52;3.00;99.90
4520;DHT22;2272;49.226;8.108;2022-12-07T07:46:19;3.10;99.90
4520;DHT22;2272;49.226;8.108;2022-12-07T07:48:45;3.10;99.90
4520;DHT22;2272;49.226;8.108;2022-12-07T07:51:13;3.10;99.90
4520;DHT22;2272;49.226;8.108;2022-12-07T07:53:50;3.20;99.90
4520;DHT22;2272;49.226;8.108;2022-12-07T07:56:17;3.20;99.90
4520;DHT22;2272;49.226;8.108;2022-12-07T07:58:45;3.20;99.90
4520;DHT22;2272;49.226;8.108;2022-12-07T08:01:14;3.20;99.90
4520;DHT22;2272;49.226;8.108;2022-12-07T08:03:41;3.30;99.90
4520;DHT22;2272;49.226;8.108;2022-12-07T08:06:08;3.30;99.90
4520;DHT22;2272;49.226;8.108;2022-12-07T08:08:35;3.30;99.90
4520;DHT22;2272;49.226;8.108;2022-12-07T08:11:04;3.40;99.90
4520;DHT22;2272;49.226;8.108;2022-12-07T08:13:31;3.50;99.90
4520;DHT22;2272;49.226;8.108;2022-12-07T08:16:03;3.50;99.90
4520;DHT22;2272;49.226;8.108;2022-12-07T08:18:30;3.50;99.90
4520;DHT22;2272;49.226;8.108;2022-12-07T08:20:59;3.60;99.90
4520;DHT22;2272;49.226;8.108;2022-12-07T08:23:26;3.60;99.90
4520;DHT22;2272;49.226;8.108;2022-12-07T08:25:53;3.70;99.90
4520;DHT22;2272;49.226;8.108;2022-12-07T08:28:20;3.70;99.90
4520;DHT22;2272;49.226;8.108;2022-12-07T08:30:46;3.70;99.90
4520;DHT22;2272;49.226;8.108;2022-12-07T08:33:14;3.80;99.90
4520;DHT22;2272;49.226;8.108;2022-12-07T08:35:41;3.80;99.90
4520;DHT22;2272;49.226;8.108;2022-12-07T08:38:08;3.90;99.90
4520;DHT22;2272;49.226;8.108;2022-12-07T08:40:34;3.90;99.90
4520;DHT22;2272;49.226;8.108;2022-12-07T08:43:01;3.90;99.90
4520;DHT22;2272;49.226;8.108;2022-12-07T08:45:29;4.00;99.90
4520;DHT22;2272;49.226;8.108;2022-12-07T08:48:01;4.00;99.90
4520;DHT22;2272;49.226;8.108;2022-12-07T08:50:31;4.00;99.90
4520;DHT22;2272;49.226;8.108;2022-12-07T08:52:59;4.00;99.90
4520;DHT22;2272;49.226;8.108;2022-12-07T08:55:27;4.10;99.90
4520;DHT22;2272;49.226;8.108;2022-12-07T08:57:57;4.10;99.90
4520;DHT22;2272;49.226;8.108;2022-12-07T09:00:24;4.20;99.90
4520;DHT22;2272;49.226;8.108;2022-12-07T09:02:51;4.20;99.90
4520;DHT22;2272;49.226;8.108;2022-12-07T09:05:18;4.20;99.90
4520;DHT22;2272;49.226;8.108;2022-12-07T09:07:49;4.30;99.90
4520;DHT22;2272;49.226;8.108;2022-12-07T09:10:17;4.30;99.90
4520;DHT22;2272;49.226;8.108;2022-12-07T09:12:44;4.40;99.90
4520;DHT22;2272;49.226;8.108;2022-12-07T09:15:10;4.40;99.90
4520;DHT22;2272;49.226;8.108;2022-12-07T09:17:37;4.40;99.90
4520;DHT22;2272;49.226;8.108;2022-12-07T09:20:05;4.40;99.90
4520;DHT22;2272;49.226;8.108;2022-12-07T09:22:32;4.50;99.90
4520;DHT22;2272;49.226;8.108;2022-12-07T09:25:01;4.50;99.90
4520;DHT22;2272;49.226;8.108;2022-12-07T09:27:28;4.50;99.90
4520;DHT22;2272;49.226;8.108;2022-12-07T09:29:55;4.50;99.90
4520;DHT22;2272;49.226;8.108;2022-12-07T09:32:22;4.60;99.90
4520;DHT22;2272;49.226;8.108;2022-12-07T09:34:48;4.60;99.90
4520;DHT22;2272;49.226;8.108;2022-12-07T09:37:15;4.70;99.90
4520;DHT22;2272;49.226;8.108;2022-12-07T09:39:42;4.70;99.90
4520;DHT22;2272;49.226;8.108;2022-12-07T09:42:25;4.80;99.90
4520;DHT22;2272;49.226;8.108;2022-12-07T09:44:53;4.90;99.90
4520;DHT22;2272;49.226;8.108;2022-12-07T09:47:20;4.90;99.90
4520;DHT22;2272;49.226;8.108;2022-12-07T09:49:47;4.90;99.90
4520;DHT22;2272;49.226;8.108;2022-12-07T09:52:25;4.90;99.90
4520;DHT22;2272;49.226;8.108;2022-12-07T09:54:53;5.00;99.90
4520;DHT22;2272;49.226;8.108;2022-12-07T09:57:27;5.00;99.90
4520;DHT22;2272;49.226;8.108;2022-12-07T09:59:56;5.00;99.90
4520;DHT22;2272;49.226;8.108;2022-12-07T10:02:28;5.10;99.90
4520;DHT22;2272;49.226;8.108;2022-12-07T10:04:59;5.10;99.90
4520;DHT22;2272;49.226;8.108;2022-12-07T10:07:26;5.20;99.90
4520;DHT22;2272;49.226;8.108;2022-12-07T10:09:54;5.20;99.90
4520;DHT22;2272;49.226;8.108;2022-12-07T10:12:22;5.30;99.90
4520;DHT22;2272;49.226;8.108;2022-12-07T10:15:00;5.40;99.90
4520;DHT22;2272;49.226;8.108;2022-12-07T10:17:31;5.40;99.90
4520;DHT22;2272;49.226;8.108;2022-12-07T10:20:20;5.50;99.90
4520;DHT22;2272;49.226;8.108;2022-12-07T10:22:55;5.50;99.90
4520;DHT22;2272;49.226;8.108;2022-12-07T10:25:25;5.60;99.90
4520;DHT22;2272;49.226;8.108;2022-12-07T10:28:02;5.60;99.90
4520;DHT22;2272;49.226;8.108;2022-12-07T10:30:30;5.60;99.90
4520;DHT22;2272;49.226;8.108;2022-12-07T10:32:58;5.60;99.90
4520;DHT22;2272;49.226;8.108;2022-12-07T10:35:26;5.60;99.90
4520;DHT22;2272;49.226;8.108;2022-12-07T10:37:55;5.60;99.90
4520;DHT22;2272;49.226;8.108;2022-12-07T10:40:27;5.60;99.90
4520;DHT22;2272;49.226;8.108;2022-12-07T10:43:03;5.70;99.90
4520;DHT22;2272;49.226;8.108;2022-12-07T10:45:30;5.80;99.90
4520;DHT22;2272;49.226;8.108;2022-12-07T10:48:01;5.80;99.90
4520;DHT22;2272;49.226;8.108;2022-12-07T10:50:41;5.90;99.90
4520;DHT22;2272;49.226;8.108;2022-12-07T10:53:21;5.90;99.90
4520;DHT22;2272;49.226;8.108;2022-12-07T10:56:03;5.80;99.90
4520;DHT22;2272;49.226;8.108;2022-12-07T10:58:42;5.80;99.90
4520;DHT22;2272;49.226;8.108;2022-12-07T11:01:21;5.80;99.90
4520;DHT22;2272;49.226;8.108;2022-12-07T11:04:15;5.80;99.90
4520;DHT22;2272;49.226;8.108;2022-12-07T11:06:48;5.80;99.90
4520;DHT22;2272;49.226;8.108;2022-12-07T11:10:00;5.90;99.90
4520;DHT22;2272;49.226;8.108;2022-12-07T11:12:37;6.10;99.90
4520;DHT22;2272;49.226;8.108;2022-12-07T11:15:15;6.20;99.90
4520;DHT22;2272;49.226;8.108;2022-12-07T11:17:50;6.40;99.90
4520;DHT22;2272;49.226;8.108;2022-12-07T11:20:29;6.50;99.90
4520;DHT22;2272;49.226;8.108;2022-12-07T11:23:07;6.50;99.90
4520;DHT22;2272;49.226;8.108;2022-12-07T11:25:41;6.40;99.90
4520;DHT22;2272;49.226;8.108;2022-12-07T11:28:21;6.50;99.90
4520;DHT22;2272;49.226;8.108;2022-12-07T11:30:59;6.60;99.90
4520;DHT22;2272;49.226;8.108;2022-12-07T11:33:34;6.60;99.90
4520;DHT22;2272;49.226;8.108;2022-12-07T11:36:09;6.70;99.90
4520;DHT22;2272;49.226;8.108;2022-12-07T11:38:44;6.80;99.90
4520;DHT22;2272;49.226;8.108;2022-12-07T11:41:16;6.80;99.90
4520;DHT22;2272;49.226;8.108;2022-12-07T11:43:53;6.70;99.90
4520;DHT22;2272;49.226;8.108;2022-12-07T11:46:25;6.60;99.90
4520;DHT22;2272;49.226;8.108;2022-12-07T11:49:01;6.50;99.90
4520;DHT22;2272;49.226;8.108;2022-12-07T11:51:30;6.50;99.90
4520;DHT22;2272;49.226;8.108;2022-12-07T11:54:02;6.60;99.90
4520;DHT22;2272;49.226;8.108;2022-12-07T11:56:30;6.60;99.90
4520;DHT22;2272;49.226;8.108;2022-12-07T11:59:08;6.70;99.90
4520;DHT22;2272;49.226;8.108;2022-12-07T12:01:48;6.80;99.90
4520;DHT22;2272;49.226;8.108;2022-12-07T12:04:32;7.00;99.90
4520;DHT22;2272;49.226;8.108;2022-12-07T12:07:00;7.10;99.90
4520;DHT22;2272;49.226;8.108;2022-12-07T12:09:31;7.20;99.90
4520;DHT22;2272;49.226;8.108;2022-12-07T12:12:22;7.20;99.90
4520;DHT22;2272;49.226;8.108;2022-12-07T12:15:01;7.00;99.90
4520;DHT22;2272;49.226;8.108;2022-12-07T12:17:46;7.00;99.90
4520;DHT22;2272;49.226;8.108;2022-12-07T12:20:22;7.00;99.90
4520;DHT22;2272;49.226;8.108;2022-12-07T12:22:53;7.00;99.90
4520;DHT22;2272;49.226;8.108;2022-12-07T12:25:24;7.00;99.90
4520;DHT22;2272;49.226;8.108;2022-12-07T12:27:54;7.00;99.90
4520;DHT22;2272;49.226;8.108;2022-12-07T12:30:39;6.90;99.90
4520;DHT22;2272;49.226;8.108;2022-12-07T12:33:14;6.90;99.90
4520;DHT22;2272;49.226;8.108;2022-12-07T12:35:42;6.80;99.90
4520;DHT22;2272;49.226;8.108;2022-12-07T12:38:31;6.80;99.90
4520;DHT22;2272;49.226;8.108;2022-12-07T12:40:59;6.70;99.90
4520;DHT22;2272;49.226;8.108;2022-12-07T12:43:46;6.70;99.90
4520;DHT22;2272;49.226;8.108;2022-12-07T12:46:54;6.60;99.90
4520;DHT22;2272;49.226;8.108;2022-12-07T12:49:54;6.60;99.90
4520;DHT22;2272;49.226;8.108;2022-12-07T12:56:20;6.60;99.90
4520;DHT22;2272;49.226;8.108;2022-12-07T12:58:48;6.60;99.90
4520;DHT22;2272;49.226;8.108;2022-12-07T13:01:41;6.60;99.90
4520;DHT22;2272;49.226;8.108;2022-12-07T13:08:00;6.60;99.90
4520;DHT22;2272;49.226;8.108;2022-12-07T13:10:40;6.40;99.90
4520;DHT22;2272;49.226;8.108;2022-12-07T13:13:33;6.30;99.90
4520;DHT22;2272;49.226;8.108;2022-12-07T13:22:49;6.20;99.90
4520;DHT22;2272;49.226;8.108;2022-12-07T13:25:28;6.30;99.90
4520;DHT22;2272;49.226;8.108;2022-12-07T13:27:59;6.30;99.90
4520;DHT22;2272;49.226;8.108;2022-12-07T13:30:31;6.20;99.90
4520;DHT22;2272;49.226;8.108;2022-12-07T13:33:03;6.10;99.90
4520;DHT22;2272;49.226;8.108;2022-12-07T13:35:32;6.10;99.90
4520;DHT22;2272;49.226;8.108;2022-12-07T13:38:02;6.00;99.90
4520;DHT22;2272;49.226;8.108;2022-12-07T13:40:31;6.00;99.90
4520;DHT22;2272;49.226;8.108;2022-12-07T13:42:59;5.90;99.90
4520;DHT22;2272;49.226;8.108;2022-12-07T13:45:28;5.90;99.90
4520;DHT22;2272;49.226;8.108;2022-12-07T13:48:14;5.90;99.90
4520;DHT22;2272;49.226;8.108;2022-12-07T13:50:42;5.80;99.90
4520;DHT22;2272;49.226;8.108;2022-12-07T13:53:12;5.80;99.90
4520;DHT22;2272;49.226;8.108;2022-12-07T13:55:46;5.70;99.90
4520;DHT22;2272;49.226;8.108;2022-12-07T13:58:14;5.70;99.90
4520;DHT22;2272;49.226;8.108;2022-12-07T14:00:41;5.60;99.90
4520;DHT22;2272;49.226;8.108;2022-12-07T14:03:25;5.60;99.90
4520;DHT22;2272;49.226;8.108;2022-12-07T14:06:10;5.50;99.90
4520;DHT22;2272;49.226;8.108;2022-12-07T14:08:39;5.50;99.90
4520;DHT22;2272;49.226;8.108;2022-12-07T14:11:09;5.40;99.90
4520;DHT22;2272;49.226;8.108;2022-12-07T14:13:45;5.40;99.90
4520;DHT22;2272;49.226;8.108;2022-12-07T14:16:24;5.40;99.90
4520;DHT22;2272;49.226;8.108;2022-12-07T14:18:51;5.30;99.90
4520;DHT22;2272;49.226;8.108;2022-12-07T14:21:20;5.20;99.90
4520;DHT22;2272;49.226;8.108;2022-12-07T14:24:09;5.20;99.90
4520;DHT22;2272;49.226;8.108;2022-12-07T14:26:39;5.10;99.90
4520;DHT22;2272;49.226;8.108;2022-12-07T14:29:22;4.90;99.90
4520;DHT22;2272;49.226;8.108;2022-12-07T14:31:56;4.60;99.90
4520;DHT22;2272;49.226;8.108;2022-12-07T14:34:23;4.40;99.90
4520;DHT22;2272;49.226;8.108;2022-12-07T14:36:50;4.20;99.90
4520;DHT22;2272;49.226;8.108;2022-12-07T14:39:17;4.10;99.90
4520;DHT22;2272;49.226;8.108;2022-12-07T14:41:45;4.10;99.90
4520;DHT22;2272;49.226;8.108;2022-12-07T14:44:19;4.10;99.90
4520;DHT22;2272;49.226;8.108;2022-12-07T14:46:46;4.20;99.90
4520;DHT22;2272;49.226;8.108;2022-12-07T14:49:13;4.10;99.90
4520;DHT22;2272;49.226;8.108;2022-12-07T14:51:40;4.10;99.90
4520;DHT22;2272;49.226;8.108;2022-12-07T14:54:15;4.00;99.90
4520;DHT22;2272;49.226;8.108;2022-12-07T14:56:44;3.90;99.90
4520;DHT22;2272;49.226;8.108;2022-12-07T14:59:15;3.80;99.90
4520;DHT22;2272;49.226;8.108;2022-12-07T15:01:41;3.80;99.90
4520;DHT22;2272;49.226;8.108;2022-12-07T15:04:08;3.80;99.90
4520;DHT22;2272;49.226;8.108;2022-12-07T15:06:35;3.80;99.90
4520;DHT22;2272;49.226;8.108;2022-12-07T15:09:02;3.90;99.90
4520;DHT22;2272;49.226;8.108;2022-12-07T15:11:29;3.90;99.90
4520;DHT22;2272;49.226;8.108;2022-12-07T15:13:57;3.90;99.90
4520;DHT22;2272;49.226;8.108;2022-12-07T15:16:39;4.00;99.90
4520;DHT22;2272;49.226;8.108;2022-12-07T15:19:10;4.00;99.90
4520;DHT22;2272;49.226;8.108;2022-12-07T15:21:38;4.00;99.90
4520;DHT22;2272;49.226;8.108;2022-12-07T15:24:05;4.00;99.90
4520;DHT22;2272;49.226;8.108;2022-12-07T15:26:32;4.00;99.90
4520;DHT22;2272;49.226;8.108;2022-12-07T15:29:00;4.00;99.90
4520;DHT22;2272;49.226;8.108;2022-12-07T15:31:27;3.90;99.90
4520;DHT22;2272;49.226;8.108;2022-12-07T15:33:53;3.90;99.90
4520;DHT22;2272;49.226;8.108;2022-12-07T15:36:22;3.80;99.90
4520;DHT22;2272;49.226;8.108;2022-12-07T15:38:49;3.80;99.90
4520;DHT22;2272;49.226;8.108;2022-12-07T15:41:17;3.80;99.90
4520;DHT22;2272;49.226;8.108;2022-12-07T15:43:44;3.70;99.90
4520;DHT22;2272;49.226;8.108;2022-12-07T15:46:35;3.70;99.90
4520;DHT22;2272;49.226;8.108;2022-12-07T15:49:03;3.60;99.90
4520;DHT22;2272;49.226;8.108;2022-12-07T15:51:30;3.60;99.90
4520;DHT22;2272;49.226;8.108;2022-12-07T15:53:57;3.60;99.90
4520;DHT22;2272;49.226;8.108;2022-12-07T15:56:24;3.60;99.90
4520;DHT22;2272;49.226;8.108;2022-12-07T15:58:51;3.60;99.90
4520;DHT22;2272;49.226;8.108;2022-12-07T16:01:19;3.60;99.90
4520;DHT22;2272;49.226;8.108;2022-12-07T16:03:47;3.50;99.90
4520;DHT22;2272;49.226;8.108;2022-12-07T16:06:16;3.50;99.90
4520;DHT22;2272;49.226;8.108;2022-12-07T16:08:43;3.50;99.90
4520;DHT22;2272;49.226;8.108;2022-12-07T16:11:10;3.40;99.90
4520;DHT22;2272;49.226;8.108;2022-12-07T16:13:37;3.40;99.90
4520;DHT22;2272;49.226;8.108;2022-12-07T16:16:05;3.30;99.90
4520;DHT22;2272;49.226;8.108;2022-12-07T16:18:33;3.30;99.90
4520;DHT22;2272;49.226;8.108;2022-12-07T16:21:01;3.30;99.90
4520;DHT22;2272;49.226;8.108;2022-12-07T16:23:28;3.30;99.90
4520;DHT22;2272;49.226;8.108;2022-12-07T16:26:03;3.30;99.90
4520;DHT22;2272;49.226;8.108;2022-12-07T16:28:30;3.30;99.90
4520;DHT22;2272;49.226;8.108;2022-12-07T16:31:01;3.20;99.90
4520;DHT22;2272;49.226;8.108;2022-12-07T16:33:28;3.10;99.90
4520;DHT22;2272;49.226;8.108;2022-12-07T16:35:54;3.00;99.90
4520;DHT22;2272;49.226;8.108;2022-12-07T16:38:22;2.80;99.90
4520;DHT22;2272;49.226;8.108;2022-12-07T16:40:49;2.60;99.90
4520;DHT22;2272;49.226;8.108;2022-12-07T16:43:16;2.50;99.90
4520;DHT22;2272;49.226;8.108;2022-12-07T16:45:42;2.50;99.90
4520;DHT22;2272;49.226;8.108;2022-12-07T16:48:09;2.50;99.90
4520;DHT22;2272;49.226;8.108;2022-12-07T16:50:38;2.60;99.90
4520;DHT22;2272;49.226;8.108;2022-12-07T16:53:06;2.60;99.90
4520;DHT22;2272;49.226;8.108;2022-12-07T16:55:36;2.50;99.90
4520;DHT22;2272;49.226;8.108;2022-12-07T16:58:03;2.50;99.90